TimeHAST,TemperatureF,Dew PointF,Humidity,Sea Level PressureIn,VisibilityMPH,Wind Direction,Wind SpeedMPH,Gust SpeedMPH,PrecipitationIn,Events,Conditions,WindDirDegrees,DateUTC
12:16 AM,41.0,39.2,93,29.60,6.0,North,10.4,-,N/A,,Overcast,10,2012-11-08 10:16:00
12:36 AM,41.0,39.2,93,29.60,5.0,NNE,9.2,-,N/A,,Overcast,20,2012-11-08 10:36:00
12:56 AM,41.0,39.2,93,29.60,8.0,NNE,10.4,-,N/A,,Overcast,20,2012-11-08 10:56:00
1:16 AM,41.0,39.2,93,29.59,5.0,NNE,13.8,17.3,N/A,,Overcast,30,2012-11-08 11:16:00
1:36 AM,41.0,39.2,93,29.60,7.0,North,6.9,-,N/A,,Overcast,10,2012-11-08 11:36:00
1:56 AM,41.0,39.2,93,29.59,9.0,North,12.7,-,N/A,,Overcast,10,2012-11-08 11:56:00
2:16 AM,41.0,39.2,93,29.59,10.0,North,12.7,-,N/A,,Overcast,360,2012-11-08 12:16:00
2:36 AM,41.0,39.2,93,29.59,8.0,North,12.7,-,N/A,,Overcast,10,2012-11-08 12:36:00
2:56 AM,41.0,39.2,93,29.58,10.0,North,12.7,-,N/A,,Overcast,10,2012-11-08 12:56:00
3:16 AM,41.0,39.2,93,29.58,10.0,North,9.2,-,N/A,,Overcast,10,2012-11-08 13:16:00
3:36 AM,41.0,39.2,93,29.57,10.0,North,11.5,-,N/A,,Overcast,10,2012-11-08 13:36:00
3:56 AM,41.0,39.2,93,29.57,10.0,North,12.7,-,N/A,,Overcast,10,2012-11-08 13:56:00
4:16 AM,41.0,39.2,93,29.57,10.0,NNE,15.0,-,N/A,,Overcast,20,2012-11-08 14:16:00
4:36 AM,41.0,39.2,93,29.57,9.0,NNE,11.5,-,N/A,,Overcast,20,2012-11-08 14:36:00
4:56 AM,41.0,39.2,93,29.56,7.0,North,15.0,-,N/A,,Overcast,360,2012-11-08 14:56:00
5:16 AM,41.0,39.2,93,29.56,5.0,North,15.0,-,N/A,,Overcast,10,2012-11-08 15:16:00
5:36 AM,41.0,39.2,93,29.56,4.0,North,15.0,-,N/A,,Overcast,10,2012-11-08 15:36:00
5:56 AM,41.0,39.2,93,29.56,4.0,North,15.0,21.9,N/A,,Overcast,10,2012-11-08 15:56:00
6:16 AM,41.0,39.2,93,29.57,4.0,NNE,12.7,-,N/A,,Overcast,20,2012-11-08 16:16:00
6:36 AM,41.0,39.2,93,29.57,4.0,North,13.8,-,N/A,,Overcast,10,2012-11-08 16:36:00
6:56 AM,41.0,39.2,93,29.57,5.0,North,13.8,-,N/A,,Overcast,10,2012-11-08 16:56:00
7:16 AM,41.0,39.2,93,29.57,7.0,North,12.7,-,N/A,,Overcast,10,2012-11-08 17:16:00
7:36 AM,41.0,39.2,93,29.57,4.0,North,13.8,-,N/A,,Overcast,10,2012-11-08 17:36:00
7:56 AM,41.0,39.2,93,29.57,3.0,North,16.1,20.7,N/A,,Overcast,10,2012-11-08 17:56:00
8:16 AM,41.0,39.2,93,29.57,2.5,North,16.1,20.7,N/A,,Overcast,10,2012-11-08 18:16:00
8:36 AM,41.0,39.2,93,29.58,2.0,North,15.0,20.7,N/A,,Overcast,10,2012-11-08 18:36:00
8:56 AM,41.0,39.2,93,29.58,2.5,North,16.1,-,N/A,,Overcast,10,2012-11-08 18:56:00
9:16 AM,41.0,39.2,93,29.59,1.8,North,16.1,19.6,N/A,,Overcast,10,2012-11-08 19:16:00
9:36 AM,41.0,39.2,93,29.59,1.8,North,15.0,-,N/A,,Overcast,10,2012-11-08 19:36:00
9:56 AM,41.0,39.2,93,29.59,1.8,North,13.8,18.4,N/A,,Overcast,10,2012-11-08 19:56:00
10:16 AM,41.0,39.2,93,29.59,1.2,North,13.8,-,N/A,,Overcast,10,2012-11-08 20:16:00
10:36 AM,41.0,39.2,93,29.58,1.2,North,16.1,21.9,N/A,,Overcast,10,2012-11-08 20:36:00
10:56 AM,42.8,39.2,87,29.58,1.0,North,17.3,-,N/A,,Overcast,10,2012-11-08 20:56:00
11:16 AM,42.8,39.2,87,29.59,1.2,North,18.4,23.0,N/A,,Overcast,10,2012-11-08 21:16:00
11:36 AM,42.8,39.2,87,29.59,1.0,North,17.3,23.0,N/A,,Overcast,10,2012-11-08 21:36:00
11:56 AM,42.8,39.2,87,29.58,1.0,North,19.6,23.0,N/A,,Overcast,10,2012-11-08 21:56:00
12:16 PM,42.8,39.2,87,29.58,1.0,North,20.7,26.5,N/A,,Overcast,10,2012-11-08 22:16:00
12:36 PM,42.8,39.2,87,29.58,1.2,North,21.9,26.5,N/A,,Overcast,10,2012-11-08 22:36:00
12:56 PM,41.0,39.2,93,29.58,1.2,North,24.2,27.6,N/A,,Overcast,360,2012-11-08 22:56:00
1:16 PM,41.0,39.2,93,29.57,1.0,North,19.6,27.6,N/A,,Overcast,360,2012-11-08 23:16:00
1:36 PM,41.0,39.2,93,29.57,1.2,North,23.0,29.9,N/A,,Overcast,360,2012-11-08 23:36:00
1:56 PM,41.0,39.2,93,29.57,1.2,North,23.0,28.8,N/A,,Overcast,10,2012-11-08 23:56:00
2:16 PM,41.0,39.2,93,29.57,1.8,North,20.7,29.9,N/A,,Overcast,10,2012-11-09 00:16:00
2:36 PM,41.0,39.2,93,29.57,1.5,North,21.9,26.5,N/A,,Overcast,10,2012-11-09 00:36:00
2:56 PM,41.0,39.2,93,29.57,2.5,North,21.9,26.5,N/A,,Overcast,10,2012-11-09 00:56:00
3:16 PM,41.0,39.2,93,29.57,1.2,North,19.6,25.3,N/A,,Overcast,360,2012-11-09 01:16:00
3:36 PM,41.0,39.2,93,29.57,1.2,North,19.6,26.5,N/A,,Overcast,10,2012-11-09 01:36:00
3:56 PM,41.0,39.2,93,29.57,1.2,North,20.7,28.8,N/A,,Overcast,10,2012-11-09 01:56:00
4:16 PM,39.2,39.2,100,29.58,1.0,North,19.6,26.5,N/A,,Overcast,360,2012-11-09 02:16:00
4:36 PM,39.2,39.2,100,29.58,1.0,North,18.4,26.5,N/A,,Overcast,10,2012-11-09 02:36:00
4:56 PM,39.2,39.2,100,29.58,1.0,North,18.4,27.6,N/A,,Overcast,10,2012-11-09 02:56:00
5:16 PM,39.2,39.2,100,29.58,1.5,North,20.7,26.5,N/A,,Overcast,10,2012-11-09 03:16:00
5:36 PM,39.2,37.4,93,29.59,1.5,North,18.4,-,N/A,,Overcast,360,2012-11-09 03:36:00
5:56 PM,39.2,37.4,93,29.59,1.8,North,18.4,28.8,N/A,,Overcast,10,2012-11-09 03:56:00
6:16 PM,39.2,37.4,93,29.59,1.8,North,19.6,24.2,N/A,,Overcast,10,2012-11-09 04:16:00
6:36 PM,39.2,37.4,93,29.59,2.5,North,19.6,25.3,N/A,,Overcast,10,2012-11-09 04:36:00
6:56 PM,39.2,37.4,93,29.60,4.0,North,18.4,23.0,N/A,,Overcast,10,2012-11-09 04:56:00
7:16 PM,39.2,37.4,93,29.61,5.0,North,19.6,25.3,N/A,,Overcast,10,2012-11-09 05:16:00
7:36 PM,39.2,37.4,93,29.61,5.0,North,23.0,27.6,N/A,,Overcast,360,2012-11-09 05:36:00
7:56 PM,39.2,37.4,93,29.62,4.0,North,21.9,28.8,N/A,,Overcast,10,2012-11-09 05:56:00
8:16 PM,39.2,37.4,93,29.62,5.0,North,24.2,29.9,N/A,,Overcast,360,2012-11-09 06:16:00
8:36 PM,39.2,37.4,93,29.63,5.0,North,19.6,25.3,N/A,,Overcast,10,2012-11-09 06:36:00
8:56 PM,39.2,37.4,93,29.63,6.0,North,19.6,24.2,N/A,,Overcast,360,2012-11-09 06:56:00
9:16 PM,39.2,37.4,93,29.63,10.0,North,23.0,29.9,N/A,,Overcast,350,2012-11-09 07:16:00
9:36 PM,39.2,35.6,87,29.64,10.0,North,20.7,31.1,N/A,,Overcast,350,2012-11-09 07:36:00
9:56 PM,39.2,35.6,87,29.65,9.0,North,20.7,28.8,N/A,,Overcast,360,2012-11-09 07:56:00
10:16 PM,39.2,35.6,87,29.65,10.0,North,21.9,28.8,N/A,,Overcast,360,2012-11-09 08:16:00
10:36 PM,39.2,35.6,87,29.66,10.0,North,20.7,27.6,N/A,,Overcast,350,2012-11-09 08:36:00
10:56 PM,39.2,33.8,81,29.66,10.0,North,23.0,31.1,N/A,,Overcast,350,2012-11-09 08:56:00
11:16 PM,37.4,33.8,87,29.67,10.0,North,19.6,25.3,N/A,,Overcast,350,2012-11-09 09:16:00
11:36 PM,37.4,33.8,87,29.68,10.0,NNW,23.0,29.9,N/A,,Overcast,340,2012-11-09 09:36:00
11:56 PM,37.4,35.6,93,29.68,5.0,North,18.4,27.6,N/A,,Overcast,350,2012-11-09 09:56:00